Latest Weather Observations for Friendly Beaches

IDT60801

Issued at 2:51 pm EST Saturday 15 June 2024 (issued every 10 minutes, with the page automatically refreshed every 10 minutes)

About weather observations | Map of weather stations | Latest weather observations for TAS | Other Formats
Station Details ID: 092114 Name: FRIENDLY BEACHES Lat: -42.00 Lon: 148.28 Height: 55.0 m
Data from the previous 72 hours. | See also: Recent months at Friendly Beaches
Date/Time
EST
Temp
°C
App
Temp
°C
Dew
Point
°C
Rel
Hum
%
Delta-T
°C
Wind Press
QNH
hPa
Press
MSL
hPa
Rain since
9am
mm
Dir  Spd
km/h
Gust
km/h
Spd
kts
Gust
kts
15/02:30pm 10.5 5.1 4.6 67 2.7 SSW 22 46 12 25 1021.6 1021.6 0.2
15/02:00pm 10.6 5.5 4.1 64 2.9 SW 20 41 11 22 1021.7 1021.7 0.2
15/01:30pm 10.5 5.7 4.6 67 2.7 SW 19 39 10 21 1021.9 1021.9 0.2
15/01:00pm 10.5 5.6 4.9 68 2.5 SW 20 33 11 18 1022.3 1022.3 0.2
15/12:30pm 10.6 5.0 5.2 69 2.5 SW 24 39 13 21 1022.8 1022.8 0.2
15/12:00pm 9.9 5.0 4.9 71 2.2 SW 20 37 11 20 1023.1 1023.2 0.2
15/11:30am 9.6 4.8 5.6 76 1.8 SW 20 33 11 18 1023.4 1023.5 0.2
15/11:00am 9.3 5.1 5.7 78 1.6 SSW 17 33 9 18 1023.8 1023.9 0.2
15/10:30am 8.8 5.2 6.6 86 1.0 SW 15 24 8 13 1024.1 1024.2 0.2
15/10:00am 8.3 3.7 6.4 88 0.9 SW 20 30 11 16 1024.3 1024.4 0.2
15/09:30am 7.6 3.0 6.4 92 0.5 SW 20 35 11 19 1024.6 1024.7 0.2
15/09:00am 7.5 3.5 6.6 94 0.4 SW 17 28 9 15 1024.6 1024.7 4.0
15/08:30am 7.4 4.1 6.5 94 0.4 W 13 20 7 11 1024.5 1024.6 3.8
15/08:00am 7.4 4.5 6.5 94 0.4 SW 11 20 6 11 1024.4 1024.5 3.8
15/07:30am 7.2 3.9 6.5 95 0.3 SW 13 22 7 12 1024.3 1024.4 3.8
15/07:00am 7.1 3.8 6.5 96 0.3 WSW 13 22 7 12 1024.3 1024.4 3.8
15/06:30am 7.1 3.8 6.5 96 0.3 SW 13 22 7 12 1024.4 1024.5 3.6
15/06:00am 7.1 3.8 6.4 95 0.3 SW 13 28 7 15 1024.4 1024.5 3.4
15/05:30am 7.1 3.4 6.4 95 0.3 SW 15 26 8 14 1024.2 1024.3 3.2
15/05:00am 7.1 3.4 6.5 96 0.3 SW 15 26 8 14 1024.3 1024.4 3.0
15/04:30am 7.2 3.9 6.6 96 0.3 SW 13 22 7 12 1024.3 1024.4 2.8
15/04:00am 7.1 3.9 6.7 97 0.2 WSW 13 26 7 14 1024.5 1024.6 2.8
15/03:30am 7.2 4.4 6.8 97 0.2 WSW 11 19 6 10 1024.6 1024.7 2.6
15/03:00am 7.1 3.9 6.7 97 0.2 WSW 13 24 7 13 1024.8 1024.9 2.4
15/02:30am 7.0 3.7 6.6 97 0.2 WSW 13 19 7 10 1024.8 1024.9 2.4
15/02:00am 6.9 4.0 6.5 97 0.2 WSW 11 20 6 11 1024.8 1024.9 2.4
15/01:30am 7.0 4.1 6.6 97 0.2 WSW 11 17 6 9 1024.7 1024.8 2.2
15/01:00am 6.7 3.8 6.3 97 0.2 W 11 15 6 8 1024.5 1024.6 1.8
15/12:30am 6.5 3.9 6.1 97 0.2 WNW 9 15 5 8 1024.8 1024.9 1.8
15/12:00am 6.8 3.9 6.4 97 0.2 W 11 17 6 9 1025.1 1025.2 1.6
 
Date/Time
EST
Temp
°C
App
Temp
°C
Dew
Point
°C
Rel
Hum
%
Delta-T
°C
Wind Press
QNH
hPa
Press
MSL
hPa
Rain since
9am
mm
Dir  Spd
km/h
Gust
km/h
Spd
kts
Gust
kts
14/11:30pm 6.6 3.6 6.2 97 0.2 W 11 19 6 10 1025.2 1025.3 1.6
14/11:00pm 7.0 4.5 6.6 97 0.2 WSW 9 15 5 8 1025.5 1025.6 1.2
14/10:30pm 6.8 3.8 6.2 96 0.3 W 11 17 6 9 1025.4 1025.5 0.2
14/10:00pm 6.7 3.7 6.1 96 0.3 WSW 11 19 6 10 1025.4 1025.5 0.2
14/09:30pm 6.6 3.6 5.9 95 0.3 WSW 11 19 6 10 1025.5 1025.6 0.2
14/09:00pm 6.9 4.3 6.2 95 0.3 SW 9 17 5 9 1025.7 1025.8 0.2
14/08:30pm 6.9 4.3 6.0 94 0.4 SW 9 15 5 8 1025.7 1025.8 0.0
14/08:00pm 7.2 3.8 6.0 92 0.5 SSW 13 22 7 12 1025.8 1025.9 0.0
14/07:30pm 7.5 4.9 6.0 90 0.7 SSW 9 15 5 8 1025.8 1025.9 0.0
14/07:00pm 7.4 4.5 4.7 83 1.2 SSW 9 17 5 9 1025.6 1025.7 0.0
14/06:30pm 7.7 4.8 4.5 80 1.4 SSW 9 13 5 7 1025.5 1025.6 0.0
14/06:00pm 7.9 5.0 4.5 79 1.5 SSW 9 15 5 8 1025.5 1025.6 0.0
14/05:30pm 8.4 4.7 4.2 75 1.8 S 13 24 7 13 1025.5 1025.6 0.0
14/05:00pm 8.5 5.5 3.9 73 2.0 SSW 9 19 5 10 1025.3 1025.4 0.0
14/04:30pm 8.8 5.4 4.0 72 2.1 SSW 11 20 6 11 1025.2 1025.3 0.0
14/04:00pm 9.0 5.7 4.6 74 1.9 SSW 11 19 6 10 1025.0 1025.1 0.0
14/03:30pm 9.2 5.6 4.8 74 2.0 SSW 13 24 7 13 1024.9 1025.0 0.0
14/03:00pm 9.4 5.7 4.6 72 2.1 SSW 13 20 7 11 1024.9 1025.0 0.0
14/02:30pm 9.9 6.5 3.9 66 2.6 SSW 11 20 6 11 1024.7 1024.8 0.0
14/02:00pm 10.0 6.9 3.7 65 2.7 SSW 9 19 5 10 1024.7 1024.8 0.0
14/01:30pm 10.0 6.6 4.2 67 2.6 S 11 17 6 9 1024.9 1025.0 0.0
14/01:00pm 10.0 7.0 4.2 67 2.6 SSW 9 15 5 8 1025.1 1025.2 0.0
14/12:30pm 10.4 7.2 3.2 61 3.1 S 9 17 5 9 1025.2 1025.3 0.0
14/12:00pm 10.0 6.6 4.0 66 2.6 S 11 19 6 10 1025.4 1025.5 0.0
14/11:30am 9.5 6.2 4.3 70 2.3 SSW 11 19 6 10 1025.7 1025.8 0.0
14/11:00am 9.5 6.8 3.5 66 2.6 SW 7 13 4 7 1025.9 1026.0 0.0
14/10:30am 9.3 5.8 3.3 66 2.6 S 11 17 6 9 1026.3 1026.4 0.0
14/10:00am 9.0 5.9 3.6 69 2.3 SSW 9 15 5 8 1026.1 1026.2 0.0
14/09:30am 8.4 6.1 4.8 78 1.6 SSW 6 13 3 7 1025.9 1026.0 0.0
14/09:00am 7.6 5.4 5.2 85 1.1 W 6 9 3 5 1025.8 1025.9 0.6
14/08:30am 7.6 5.1 4.7 82 1.3 WSW 7 15 4 8 1025.5 1025.6 0.6
14/08:00am 6.9 4.1 5.2 89 0.7 WNW 9 11 5 6 1025.4 1025.5 0.6
14/07:30am 6.9 4.1 5.2 89 0.8 WNW 9 13 5 7 1025.3 1025.4 0.6
14/07:00am 6.9 4.6 5.8 93 0.5 WNW 7 9 4 5 1025.3 1025.4 0.4
14/06:30am 6.9 4.7 6.0 94 0.4 W 7 11 4 6 1025.1 1025.2 0.4
14/06:00am 6.7 4.4 5.8 94 0.4 WNW 7 9 4 5 1025.0 1025.1 0.4
14/05:30am 6.8 4.2 6.1 95 0.3 WNW 9 11 5 6 1024.8 1024.9 0.4
14/05:00am 6.8 4.2 6.2 96 0.3 W 9 13 5 7 1024.5 1024.6 0.4
14/04:30am 6.8 4.3 6.4 97 0.2 WNW 9 13 5 7 1024.4 1024.5 0.4
14/04:00am 6.8 3.9 6.4 97 0.2 WNW 11 15 6 8 1024.2 1024.3 0.4
14/03:30am 6.7 4.1 6.3 97 0.2 W 9 13 5 7 1024.1 1024.2 0.4
14/03:00am 6.6 4.0 6.2 97 0.2 WNW 9 17 5 9 1024.0 1024.1 0.4
14/02:30am 6.6 4.0 6.2 97 0.2 WNW 9 13 5 7 1024.2 1024.3 0.4
14/02:00am 6.7 4.1 6.3 97 0.2 WNW 9 13 5 7 1024.3 1024.4 0.4
14/01:30am 7.0 4.1 6.6 97 0.2 WNW 11 15 6 8 1024.3 1024.4 0.4
14/01:00am 7.4 4.6 7.0 97 0.2 W 11 17 6 9 1024.3 1024.4 0.4
14/12:30am 7.5 5.1 6.9 96 0.3 W 9 17 5 9 1024.2 1024.3 0.4
14/12:00am 7.6 5.7 6.9 95 0.3 WNW 6 9 3 5 1024.3 1024.4 0.2
 
Date/Time
EST
Temp
°C
App
Temp
°C
Dew
Point
°C
Rel
Hum
%
Delta-T
°C
Wind Press
QNH
hPa
Press
MSL
hPa
Rain since
9am
mm
Dir  Spd
km/h
Gust
km/h
Spd
kts
Gust
kts
13/11:30pm 7.9 5.5 6.8 93 0.5 WSW 9 15 5 8 1024.2 1024.3 0.0
13/11:00pm 7.8 5.0 7.1 95 0.3 W 11 17 6 9 1024.0 1024.1 0.0
13/10:30pm 8.3 5.9 6.8 90 0.7 WSW 9 15 5 8 1023.9 1024.0 0.0
13/10:00pm 8.4 5.6 7.0 91 0.7 SW 11 26 6 14 1023.9 1024.0 0.0
13/09:30pm 8.3 5.1 6.9 91 0.7 SW 13 26 7 14 1023.9 1024.0 0.0
13/09:00pm 7.8 5.2 6.1 89 0.8 W 9 13 5 7 1023.8 1023.9 0.0
13/08:30pm 8.2 5.9 5.8 85 1.1 W 7 9 4 5 1023.6 1023.7 0.0
13/08:00pm 8.8 6.1 5.7 81 1.4 SW 9 17 5 9 1023.5 1023.6 0.0
13/07:30pm 9.0 5.9 5.7 80 1.5 SW 11 20 6 11 1023.2 1023.3 0.0
13/07:00pm 9.1 6.1 6.0 81 1.4 SW 11 26 6 14 1023.1 1023.2 0.0
13/06:30pm 8.7 5.4 6.5 86 1.0 SW 13 22 7 12 1022.9 1022.9 0.0
13/06:00pm 9.5 6.3 5.3 75 1.9 SSW 11 22 6 12 1022.5 1022.5 0.0
13/05:30pm 9.6 6.4 5.0 73 2.1 SSW 11 15 6 8 1022.2 1022.2 0.0
13/05:00pm 9.8 6.4 4.0 67 2.5 SSW 11 19 6 10 1021.8 1021.8 0.0
13/04:30pm 10.0 7.0 4.2 67 2.6 SSW 9 11 5 6 1021.7 1021.7 0.0
13/04:00pm 10.6 7.2 4.1 64 2.9 SW 11 19 6 10 1021.5 1021.5 0.0
13/03:30pm 11.1 8.1 3.9 61 3.2 SW 9 19 5 10 1021.3 1021.3 0.0
13/03:00pm 11.2 7.8 4.0 61 3.2 SW 11 19 6 10 1021.0 1021.0 0.0
13/02:30pm 11.7 8.7 4.0 59 3.5 SW 9 17 5 9 1020.9 1020.9 0.0
13/02:00pm 11.7 8.2 3.7 58 3.6 SW 11 17 6 9 1020.9 1020.9 0.0
13/01:30pm 11.6 8.2 4.1 60 3.4 WSW 11 20 6 11 1021.1 1021.1 0.0
13/01:00pm 12.0 9.1 4.5 60 3.4 WSW 9 17 5 9 1021.1 1021.1 0.0
13/12:30pm 12.1 8.4 4.3 59 3.5 SSW 13 22 7 12 1021.0 1021.0 0.0
13/12:00pm 11.4 7.3 4.2 61 3.2 SW 15 26 8 14 1021.0 1021.0 0.0
13/11:30am 11.1 8.1 4.3 63 3.1 WSW 9 19 5 10 1021.2 1021.2 0.0
13/11:00am 10.6 7.2 4.1 64 2.9 WSW 11 19 6 10 1021.3 1021.3 0.0
13/10:30am 9.9 6.0 3.6 65 2.8 WSW 13 22 7 12 1021.6 1021.6 0.0
13/10:00am 9.4 6.0 4.0 69 2.4 W 11 17 6 9 1021.5 1021.5 0.0
13/09:30am 8.0 5.3 3.5 73 1.9 W 7 13 4 7 1021.5 1021.5 0.0
13/09:00am 6.9 3.7 2.8 75 1.7 W 9 13 5 7 1021.2 1021.2 0.0
13/08:30am 6.3 2.3 2.6 77 1.5 W 13 19 7 10 1020.9 1020.9 0.0
13/08:00am 5.7 2.8 2.4 79 1.3 WNW 7 17 4 9 1020.8 1020.8 0.0
13/07:30am 5.4 2.6 1.9 78 1.4 NW 6 11 3 6 1020.2 1020.2 0.0
13/07:00am 5.8 2.0 1.7 75 1.6 WNW 11 26 6 14 1020.1 1020.1 0.0
13/06:30am 5.4 2.1 2.2 80 1.3 WNW 9 17 5 9 1019.7 1019.8 0.0
13/06:00am 4.4 1.6 2.1 85 0.9 WNW 6 7 3 4 1019.4 1019.5 0.0
13/05:30am 4.5 1.5 2.0 84 1.0 WNW 7 11 4 6 1019.2 1019.3 0.0
13/05:00am 4.6 1.2 1.8 82 1.1 W 9 15 5 8 1018.9 1019.0 0.0
13/04:30am 5.1 0.5 1.4 77 1.5 W 15 20 8 11 1018.8 1018.9 0.0
13/04:00am 6.1 1.5 1.4 72 1.9 WSW 15 22 8 12 1018.9 1019.0 0.0
13/03:30am 6.1 1.8 1.2 71 1.9 WSW 13 19 7 10 1019.1 1019.2 0.0
13/03:00am 5.9 1.7 1.4 73 1.8 WSW 13 19 7 10 1019.1 1019.2 0.0
13/02:30am 5.3 1.9 1.8 78 1.4 W 9 13 5 7 1019.0 1019.1 0.0
13/02:00am 5.6 1.8 1.7 76 1.6 W 11 17 6 9 1019.4 1019.5 0.0
13/01:30am 5.7 1.6 2.4 79 1.3 W 13 19 7 10 1019.2 1019.3 0.0
13/01:00am 5.5 1.8 2.3 80 1.3 W 11 15 6 8 1018.6 1018.7 0.0
13/12:30am 5.4 2.0 1.7 77 1.5 W 9 17 5 9 1018.4 1018.5 0.0
13/12:00am 6.5 2.3 1.6 71 2.0 W 13 24 7 13 1018.3 1018.4 0.0
 
Date/Time
EST
Temp
°C
App
Temp
°C
Dew
Point
°C
Rel
Hum
%
Delta-T
°C
Wind Press
QNH
hPa
Press
MSL
hPa
Rain since
9am
mm
Dir  Spd
km/h
Gust
km/h
Spd
kts
Gust
kts
12/11:30pm 5.5 2.5 2.0 78 1.4 W 7 11 4 6 1018.6 1018.7 0.0
12/11:00pm 6.0 2.6 2.1 76 1.6 W 9 13 5 7 1018.4 1018.5 0.0
12/10:30pm 6.2 2.4 1.7 73 1.8 W 11 17 6 9 1018.2 1018.3 0.0
12/10:00pm 6.2 2.1 2.1 75 1.7 W 13 17 7 9 1017.9 1018.0 0.0
12/09:30pm 5.7 2.4 2.4 79 1.3 W 9 13 5 7 1017.8 1017.9 0.0
12/09:00pm 5.8 2.5 2.3 78 1.4 W 9 13 5 7 1017.5 1017.6 0.0
12/08:30pm 6.0 2.6 2.1 76 1.6 W 9 17 5 9 1017.2 1017.3 0.0
12/08:00pm 6.6 2.5 2.1 73 1.8 WSW 13 19 7 10 1016.7 1016.8 0.0
12/07:30pm 6.3 3.0 2.2 75 1.7 W 9 13 5 7 1016.4 1016.5 0.0
12/07:00pm 7.0 3.7 2.7 74 1.8 W 9 13 5 7 1015.8 1015.9 0.0
12/06:30pm 7.2 4.2 2.3 71 2.0 W 7 13 4 7 1015.4 1015.5 0.0
12/06:00pm 7.9 4.6 2.2 67 2.4 WSW 9 15 5 8 1015.1 1015.2 0.0
12/05:30pm 8.5 5.1 2.1 64 2.7 WSW 9 17 5 9 1014.9 1015.0 0.0
12/05:00pm 8.5 5.0 1.4 61 2.9 WSW 9 17 5 9 1014.4 1014.5 0.0
12/04:30pm 9.1 4.1 1.3 58 3.2 WSW 17 26 9 14 1013.5 1013.6 0.0
12/04:00pm 9.5 5.3 1.7 58 3.3 SW 13 22 7 12 1012.8 1012.9 0.0
12/03:30pm 9.7 4.3 1.1 55 3.5 SW 19 33 10 18 1012.4 1012.5 0.0
12/03:00pm 9.9 4.3 1.5 56 3.5 SW 20 33 11 18 1011.7 1011.8 0.0

Other formats

Comma delimited format used in spreadsheet applications
http://www.bom.gov.au/fwo/IDT60801/IDT60801.94987.axf

JavaScript Object Notation format (JSON) in row-major order
http://www.bom.gov.au/fwo/IDT60801/IDT60801.94987.json

Data quality

Most of these data are generated automatically and are frequently updated. Quality checks on data are not normally performed. It is possible for incorrect values to appear. Refer to information at About Latest Weather Observations and please check the disclaimer before using these data.